createdAt,value
2022-12-25T00:00:02.222Z,1.22
2022-12-25T00:00:20.225Z,1.19
2022-12-25T00:00:28.634Z,1.19
2022-12-25T00:00:40.489Z,1.19
2022-12-25T00:00:53.029Z,1.19
2022-12-25T00:01:03.801Z,1.16
2022-12-25T00:01:14.542Z,1.16
2022-12-25T00:01:25.344Z,1.16
2022-12-25T00:01:38.292Z,1.15
2022-12-25T00:01:50.804Z,1.15
2022-12-25T00:02:04.043Z,1.14
2022-12-25T00:02:16.214Z,1.14
2022-12-25T00:02:27.996Z,1.12
2022-12-25T00:02:38.877Z,1.10
2022-12-25T00:02:49.737Z,1.10
2022-12-25T00:03:00.651Z,1.10
2022-12-25T00:03:11.633Z,1.10
2022-12-25T00:03:22.554Z,1.08
2022-12-25T00:03:33.438Z,1.08
2022-12-25T00:03:44.385Z,1.08
2022-12-25T00:03:57.069Z,1.07
2022-12-25T00:04:08.005Z,1.07
2022-12-25T00:04:19.899Z,1.06
2022-12-25T00:04:31.577Z,1.07
2022-12-25T00:04:42.354Z,1.06
2022-12-25T00:04:53.091Z,1.04
2022-12-25T00:05:03.813Z,1.06
2022-12-25T00:05:14.557Z,1.04
2022-12-25T00:05:25.301Z,1.04
2022-12-25T00:05:36.052Z,1.06
2022-12-25T00:05:46.788Z,1.04
2022-12-25T00:05:57.542Z,1.04
2022-12-25T00:06:09.997Z,1.03
2022-12-25T00:06:20.719Z,1.03
2022-12-25T00:06:32.936Z,1.03
2022-12-25T00:06:43.662Z,1.01
2022-12-25T00:06:56.135Z,1.03
2022-12-25T00:07:06.865Z,1.01
2022-12-25T00:07:17.617Z,1.00
2022-12-25T00:07:28.342Z,1.00
2022-12-25T00:07:39.105Z,1.00
2022-12-25T00:07:51.312Z,1.00
2022-12-25T00:08:05.610Z,1.00
2022-12-25T00:08:18.073Z,1.00
2022-12-25T00:08:28.829Z,0.98
2022-12-25T00:08:41.303Z,0.98
2022-12-25T00:08:52.064Z,0.97
2022-12-25T00:09:04.560Z,0.98
2022-12-25T00:09:17.044Z,0.97
2022-12-25T00:09:27.814Z,0.97
2022-12-25T00:09:38.533Z,0.97
2022-12-25T00:09:49.266Z,0.97
2022-12-25T00:10:02.473Z,0.96
2022-12-25T00:10:13.223Z,0.97
2022-12-25T00:10:23.995Z,0.97
2022-12-25T00:10:39.840Z,0.97
2022-12-25T00:10:50.363Z,0.97
2022-12-25T00:11:02.128Z,0.96
2022-12-25T00:11:13.824Z,0.97
2022-12-25T00:11:24.548Z,0.96
2022-12-25T00:11:35.306Z,0.96
2022-12-25T00:11:46.022Z,0.96
2022-12-25T00:11:58.488Z,0.96
2022-12-25T00:12:10.723Z,0.94
2022-12-25T00:12:23.972Z,0.96
2022-12-25T00:12:34.722Z,0.94
2022-12-25T00:12:45.453Z,0.94
2022-12-25T00:12:56.221Z,0.94
2022-12-25T00:13:06.945Z,0.94
2022-12-25T00:13:18.643Z,0.94
2022-12-25T00:13:29.376Z,0.94
2022-12-25T00:13:40.103Z,0.94
2022-12-25T00:13:51.826Z,0.92
2022-12-25T00:14:02.567Z,0.92
2022-12-25T00:14:13.290Z,0.92
2022-12-25T00:14:24.024Z,0.94
2022-12-25T00:14:34.769Z,0.92
2022-12-25T00:14:45.525Z,0.90
2022-12-25T00:14:57.251Z,0.89
2022-12-25T00:15:07.984Z,0.90
2022-12-25T00:15:18.744Z,0.90
2022-12-25T00:15:29.502Z,0.89
2022-12-25T00:15:40.255Z,0.89
2022-12-25T00:15:51.010Z,0.86
2022-12-25T00:16:01.838Z,0.88
2022-12-25T00:16:13.612Z,0.86
2022-12-25T00:16:24.400Z,0.88
2022-12-25T00:16:35.188Z,0.86
2022-12-25T00:16:45.986Z,0.88
2022-12-25T00:16:56.746Z,0.86
2022-12-25T00:17:08.455Z,0.86
2022-12-25T00:17:19.186Z,0.86
2022-12-25T00:17:31.645Z,0.86
2022-12-25T00:17:42.378Z,0.86
2022-12-25T00:17:53.104Z,0.85
2022-12-25T00:18:03.851Z,0.85
2022-12-25T00:18:16.599Z,0.85
2022-12-25T00:18:30.324Z,0.85
2022-12-25T00:18:42.060Z,0.85
2022-12-25T00:18:54.491Z,0.85
2022-12-25T00:19:06.688Z,0.83
2022-12-25T00:19:17.453Z,0.83
2022-12-25T00:19:29.184Z,0.83
2022-12-25T00:19:39.913Z,0.82
2022-12-25T00:19:50.713Z,0.83
2022-12-25T00:20:01.468Z,0.82
2022-12-25T00:20:12.178Z,0.82
2022-12-25T00:20:22.925Z,0.82
2022-12-25T00:20:33.661Z,0.80
2022-12-25T00:20:44.407Z,0.80
2022-12-25T00:20:55.153Z,0.80
2022-12-25T00:21:06.864Z,0.80
2022-12-25T00:21:17.597Z,0.80
2022-12-25T00:21:28.342Z,0.82
2022-12-25T00:21:39.099Z,0.80
2022-12-25T00:21:49.824Z,0.80
2022-12-25T00:22:00.603Z,0.80
2022-12-25T00:22:13.054Z,0.79
2022-12-25T00:22:24.837Z,0.79
2022-12-25T00:22:37.815Z,0.80
2022-12-25T00:22:50.774Z,0.80
2022-12-25T00:23:02.515Z,0.80
2022-12-25T00:23:14.965Z,0.79
2022-12-25T00:23:25.715Z,0.79
2022-12-25T00:23:36.443Z,0.78
2022-12-25T00:23:47.181Z,0.78
2022-12-25T00:23:57.925Z,0.78
2022-12-25T00:24:08.636Z,0.78
2022-12-25T00:24:19.374Z,0.78
2022-12-25T00:24:30.116Z,0.78
2022-12-25T00:24:40.833Z,0.76
2022-12-25T00:24:51.564Z,0.78
2022-12-25T00:25:02.304Z,0.76
2022-12-25T00:25:13.055Z,0.78
2022-12-25T00:25:23.806Z,0.76
2022-12-25T00:25:34.534Z,0.76
2022-12-25T00:25:45.272Z,0.75
2022-12-25T00:25:56.008Z,0.76
2022-12-25T00:26:06.736Z,0.78
2022-12-25T00:26:17.515Z,0.76
2022-12-25T00:26:28.276Z,0.78
2022-12-25T00:26:39.006Z,0.76
2022-12-25T00:26:51.710Z,0.76
2022-12-25T00:27:02.436Z,0.75
2022-12-25T00:27:14.181Z,0.75
2022-12-25T00:27:24.907Z,0.75
2022-12-25T00:27:37.626Z,0.75
2022-12-25T00:27:48.364Z,0.72
2022-12-25T00:27:59.113Z,0.72
2022-12-25T00:28:09.893Z,0.75
2022-12-25T00:28:20.632Z,0.72
2022-12-25T00:28:34.364Z,0.71
2022-12-25T00:28:48.156Z,0.72
2022-12-25T00:29:01.785Z,0.71
2022-12-25T00:29:12.536Z,0.71
2022-12-25T00:29:24.775Z,0.72
2022-12-25T00:29:35.600Z,0.71
2022-12-25T00:29:48.535Z,0.71
2022-12-25T00:29:59.311Z,0.70
2022-12-25T00:30:10.108Z,0.71
2022-12-25T00:30:20.856Z,0.72
2022-12-25T00:30:31.613Z,0.71
2022-12-25T00:30:44.815Z,0.72
2022-12-25T00:30:57.363Z,0.70
2022-12-25T00:31:08.109Z,0.70
2022-12-25T00:31:18.888Z,0.70
2022-12-25T00:31:29.684Z,0.68
2022-12-25T00:31:40.466Z,0.68
2022-12-25T00:31:53.260Z,0.68
2022-12-25T00:32:04.046Z,0.68
2022-12-25T00:32:14.777Z,0.67
2022-12-25T00:32:28.022Z,0.68
2022-12-25T00:32:43.173Z,0.67
2022-12-25T00:32:53.945Z,0.65
2022-12-25T00:33:06.695Z,0.65
2022-12-25T00:33:17.476Z,0.64
2022-12-25T00:33:29.921Z,0.65
2022-12-25T00:33:40.639Z,0.65
2022-12-25T00:33:51.387Z,0.64
2022-12-25T00:34:02.117Z,0.64
2022-12-25T00:34:12.867Z,0.62
2022-12-25T00:34:23.608Z,0.62
2022-12-25T00:34:34.337Z,0.64
2022-12-25T00:34:45.109Z,0.62
2022-12-25T00:34:55.837Z,0.62
2022-12-25T00:35:06.589Z,0.61
2022-12-25T00:35:17.308Z,0.61
2022-12-25T00:35:28.039Z,0.60
2022-12-25T00:35:38.816Z,0.61
2022-12-25T00:35:49.597Z,0.60
2022-12-25T00:36:00.352Z,0.60
2022-12-25T00:36:11.058Z,0.60
2022-12-25T00:36:21.850Z,0.60
2022-12-25T00:36:37.795Z,0.60
2022-12-25T00:36:48.316Z,0.58
2022-12-25T00:36:59.148Z,0.58
2022-12-25T00:37:09.885Z,0.58
2022-12-25T00:37:20.621Z,0.58
2022-12-25T00:37:33.076Z,0.57
2022-12-25T00:37:44.787Z,0.58
2022-12-25T00:37:56.508Z,0.57
2022-12-25T00:38:07.246Z,0.58
2022-12-25T00:38:18.007Z,0.53
2022-12-25T00:38:28.755Z,0.53
2022-12-25T00:38:39.552Z,0.53
2022-12-25T00:38:52.528Z,0.53
2022-12-25T00:39:06.799Z,0.52
2022-12-25T00:39:18.528Z,0.52
2022-12-25T00:39:29.301Z,0.51
2022-12-25T00:39:40.073Z,0.52
2022-12-25T00:39:52.977Z,0.52
2022-12-25T00:40:03.730Z,0.51
2022-12-25T00:40:14.475Z,0.52
2022-12-25T00:40:26.184Z,0.51
2022-12-25T00:40:36.918Z,0.51
2022-12-25T00:40:47.895Z,0.51
2022-12-25T00:40:58.650Z,0.51
2022-12-25T00:41:10.890Z,0.49
2022-12-25T00:41:23.353Z,0.49
2022-12-25T00:41:36.550Z,0.49
2022-12-25T00:41:47.296Z,0.49
2022-12-25T00:41:58.027Z,0.49
2022-12-25T00:42:08.769Z,0.49
2022-12-25T00:42:19.511Z,0.48
2022-12-25T00:42:30.239Z,0.49
2022-12-25T00:42:40.985Z,0.51
2022-12-25T00:42:51.721Z,0.48
2022-12-25T00:43:04.493Z,0.46
2022-12-25T00:43:17.467Z,0.48
2022-12-25T00:43:30.418Z,0.49
2022-12-25T00:43:42.120Z,0.48
2022-12-25T00:43:55.061Z,0.49
2022-12-25T00:44:05.860Z,0.49
2022-12-25T00:44:16.592Z,0.49
2022-12-25T00:44:27.357Z,0.49
2022-12-25T00:44:38.095Z,0.49
2022-12-25T00:44:48.871Z,0.49
2022-12-25T00:44:59.600Z,0.48
2022-12-25T00:45:12.050Z,0.48
2022-12-25T00:45:23.809Z,0.49
2022-12-25T00:45:34.576Z,0.49
2022-12-25T00:45:45.394Z,0.49
2022-12-25T00:45:59.672Z,0.48
2022-12-25T00:46:10.772Z,0.48
2022-12-25T00:46:21.717Z,0.48
2022-12-25T00:46:33.981Z,0.51
2022-12-25T00:46:44.861Z,0.49
2022-12-25T00:46:55.644Z,0.48
2022-12-25T00:47:06.419Z,0.49
2022-12-25T00:47:19.669Z,0.48
2022-12-25T00:47:30.473Z,0.46
2022-12-25T00:47:41.226Z,0.48
2022-12-25T00:47:52.916Z,0.48
2022-12-25T00:48:04.606Z,0.48
2022-12-25T00:48:17.321Z,0.46
2022-12-25T00:48:28.079Z,0.45
2022-12-25T00:48:38.893Z,0.46
2022-12-25T00:48:49.698Z,0.46
2022-12-25T00:49:00.466Z,0.46
2022-12-25T00:49:12.140Z,0.43
2022-12-25T00:49:23.917Z,0.45
2022-12-25T00:49:34.709Z,0.45
2022-12-25T00:49:45.464Z,0.42
2022-12-25T00:49:56.193Z,0.43
2022-12-25T00:50:08.919Z,0.42
2022-12-25T00:50:22.256Z,0.43
2022-12-25T00:50:33.933Z,0.42
2022-12-25T00:50:44.691Z,0.42
2022-12-25T00:50:55.442Z,0.41
2022-12-25T00:51:06.211Z,0.41
2022-12-25T00:51:16.956Z,0.41
2022-12-25T00:51:29.399Z,0.41
2022-12-25T00:51:41.827Z,0.39
2022-12-25T00:51:54.264Z,0.41
2022-12-25T00:52:05.019Z,0.41
2022-12-25T00:52:15.740Z,0.41
2022-12-25T00:52:26.482Z,0.42
2022-12-25T00:52:38.907Z,0.39
2022-12-25T00:52:49.629Z,0.39
2022-12-25T00:53:00.382Z,0.39
2022-12-25T00:53:11.117Z,0.39
2022-12-25T00:53:23.872Z,0.38
2022-12-25T00:53:37.115Z,0.38
2022-12-25T00:53:48.834Z,0.38
2022-12-25T00:53:59.583Z,0.36
2022-12-25T00:54:10.329Z,0.34
2022-12-25T00:54:21.069Z,0.38
2022-12-25T00:54:31.839Z,0.36
2022-12-25T00:54:42.559Z,0.36
2022-12-25T00:54:53.326Z,0.36
2022-12-25T00:55:04.080Z,0.34
2022-12-25T00:55:14.821Z,0.34
2022-12-25T00:55:26.631Z,0.34
2022-12-25T00:55:37.425Z,0.34
2022-12-25T00:55:48.158Z,0.34
2022-12-25T00:55:58.914Z,0.34
2022-12-25T00:56:09.668Z,0.33
2022-12-25T00:56:22.135Z,0.33
2022-12-25T00:56:32.868Z,0.31
2022-12-25T00:56:43.612Z,0.33
2022-12-25T00:56:55.334Z,0.30
2022-12-25T00:57:06.096Z,0.30
2022-12-25T00:57:16.818Z,0.28
2022-12-25T00:57:29.548Z,0.31
2022-12-25T00:57:40.310Z,0.30
2022-12-25T00:57:51.093Z,0.30
2022-12-25T00:58:01.862Z,0.30
2022-12-25T00:58:13.551Z,0.30
2022-12-25T00:58:24.279Z,0.28
2022-12-25T00:58:36.004Z,0.30
2022-12-25T00:58:48.698Z,0.31
2022-12-25T00:58:59.450Z,0.30
2022-12-25T00:59:10.190Z,0.28
2022-12-25T00:59:20.972Z,0.28
2022-12-25T00:59:34.921Z,0.28
2022-12-25T00:59:48.234Z,0.30
2022-12-25T00:59:59.972Z,0.28
2022-12-25T01:00:11.790Z,0.28
2022-12-25T01:00:25.503Z,0.28
2022-12-25T01:00:37.494Z,0.27
2022-12-25T01:00:49.286Z,0.27
2022-12-25T01:01:01.047Z,0.27
2022-12-25T01:01:12.891Z,0.27
2022-12-25T01:01:23.781Z,0.25
2022-12-25T01:01:37.520Z,0.27
2022-12-25T01:01:48.532Z,0.28
2022-12-25T01:02:00.404Z,0.27
2022-12-25T01:02:11.262Z,0.27
2022-12-25T01:02:22.265Z,0.27
2022-12-25T01:02:35.125Z,0.27
2022-12-25T01:02:48.188Z,0.27
2022-12-25T01:02:59.325Z,0.27
2022-12-25T01:03:10.401Z,0.28
2022-12-25T01:03:21.290Z,0.28
2022-12-25T01:03:32.075Z,0.28
2022-12-25T01:03:43.819Z,0.27
2022-12-25T01:03:54.561Z,0.27
2022-12-25T01:04:05.312Z,0.27
2022-12-25T01:04:16.157Z,0.28
2022-12-25T01:04:28.623Z,0.27
2022-12-25T01:04:41.118Z,0.27
2022-12-25T01:04:51.869Z,0.27
2022-12-25T01:05:04.111Z,0.25
2022-12-25T01:05:14.832Z,0.27
2022-12-25T01:05:26.570Z,0.25
2022-12-25T01:05:37.324Z,0.25
2022-12-25T01:05:49.751Z,0.25
2022-12-25T01:06:01.495Z,0.25
2022-12-25T01:06:12.230Z,0.25
2022-12-25T01:06:23.949Z,0.25
2022-12-25T01:06:34.733Z,0.27
2022-12-25T01:06:45.535Z,0.25
2022-12-25T01:06:57.782Z,0.25
2022-12-25T01:07:10.298Z,0.25
2022-12-25T01:07:21.066Z,0.25
2022-12-25T01:07:31.862Z,0.23
2022-12-25T01:07:44.304Z,0.24
2022-12-25T01:07:56.049Z,0.24
2022-12-25T01:08:07.752Z,0.23
2022-12-25T01:08:18.509Z,0.24
2022-12-25T01:08:29.241Z,0.24
2022-12-25T01:08:40.040Z,0.23
2022-12-25T01:08:51.539Z,0.24
2022-12-25T01:09:02.285Z,0.24
2022-12-25T01:09:13.041Z,0.24
2022-12-25T01:09:23.792Z,0.24
2022-12-25T01:09:34.521Z,0.23
2022-12-25T01:09:45.252Z,0.24
2022-12-25T01:09:56.008Z,0.23
2022-12-25T01:10:06.775Z,0.21
2022-12-25T01:10:17.502Z,0.23
2022-12-25T01:10:29.916Z,0.24
2022-12-25T01:10:40.641Z,0.21
2022-12-25T01:10:51.392Z,0.23
2022-12-25T01:11:02.153Z,0.23
2022-12-25T01:11:12.913Z,0.24
2022-12-25T01:11:23.628Z,0.23
2022-12-25T01:11:34.398Z,0.23
2022-12-25T01:11:45.146Z,0.23
2022-12-25T01:11:55.885Z,0.24
2022-12-25T01:12:06.847Z,0.23
2022-12-25T01:12:17.601Z,0.24
2022-12-25T01:12:28.374Z,0.24
2022-12-25T01:12:39.100Z,0.24
2022-12-25T01:12:49.864Z,0.23
2022-12-25T01:13:00.622Z,0.25
2022-12-25T01:13:12.391Z,0.25
2022-12-25T01:13:24.142Z,0.25
2022-12-25T01:13:34.935Z,0.25
2022-12-25T01:13:45.689Z,0.27
2022-12-25T01:13:58.617Z,0.25
2022-12-25T01:14:09.383Z,0.25
2022-12-25T01:14:20.112Z,0.27
2022-12-25T01:14:30.919Z,0.27
2022-12-25T01:14:41.670Z,0.25
2022-12-25T01:14:52.402Z,0.27
2022-12-25T01:15:03.197Z,0.27
2022-12-25T01:15:13.981Z,0.28
2022-12-25T01:15:24.724Z,0.27
2022-12-25T01:15:35.494Z,0.27
2022-12-25T01:15:47.244Z,0.28
2022-12-25T01:15:58.040Z,0.28
2022-12-25T01:16:10.556Z,0.27
2022-12-25T01:16:22.370Z,0.28
2022-12-25T01:16:33.187Z,0.28
2022-12-25T01:16:45.044Z,0.27
2022-12-25T01:16:55.862Z,0.27
2022-12-25T01:17:06.582Z,0.27
2022-12-25T01:17:19.032Z,0.27
2022-12-25T01:17:29.862Z,0.28
2022-12-25T01:17:40.603Z,0.27
2022-12-25T01:17:51.356Z,0.25
2022-12-25T01:18:07.745Z,0.27
2022-12-25T01:18:18.725Z,0.27
2022-12-25T01:18:31.937Z,0.28
2022-12-25T01:18:42.674Z,0.27
2022-12-25T01:18:53.435Z,0.27
2022-12-25T01:19:05.131Z,0.27
2022-12-25T01:19:15.861Z,0.27
2022-12-25T01:19:26.623Z,0.27
2022-12-25T01:19:37.384Z,0.25
2022-12-25T01:19:48.127Z,0.27
2022-12-25T01:19:58.874Z,0.27
2022-12-25T01:20:09.611Z,0.25
2022-12-25T01:20:22.069Z,0.25
2022-12-25T01:20:33.792Z,0.25
2022-12-25T01:20:44.545Z,0.24
2022-12-25T01:20:55.287Z,0.25
2022-12-25T01:21:06.030Z,0.24
2022-12-25T01:21:16.773Z,0.24
2022-12-25T01:21:28.448Z,0.23
2022-12-25T01:21:39.188Z,0.23
2022-12-25T01:21:49.942Z,0.21
2022-12-25T01:22:02.132Z,0.23
2022-12-25T01:22:12.871Z,0.21
2022-12-25T01:22:23.606Z,0.21
2022-12-25T01:22:34.352Z,0.21
2022-12-25T01:22:45.083Z,0.20
2022-12-25T01:22:55.824Z,0.20
2022-12-25T01:23:06.582Z,0.20
2022-12-25T01:23:19.104Z,0.20
2022-12-25T01:23:31.346Z,0.18
2022-12-25T01:23:43.802Z,0.18
2022-12-25T01:23:54.553Z,0.16
2022-12-25T01:24:05.356Z,0.18
2022-12-25T01:24:17.054Z,0.16
2022-12-25T01:24:28.775Z,0.16
2022-12-25T01:24:39.534Z,0.15
2022-12-25T01:24:51.684Z,0.16
2022-12-25T01:25:04.116Z,0.15
2022-12-25T01:25:15.813Z,0.15
2022-12-25T01:25:29.054Z,0.15
2022-12-25T01:25:39.776Z,0.15
2022-12-25T01:25:50.522Z,0.15
2022-12-25T01:26:02.242Z,0.15
2022-12-25T01:26:12.993Z,0.13
2022-12-25T01:26:23.776Z,0.15
2022-12-25T01:26:38.544Z,0.13
2022-12-25T01:26:49.284Z,0.13
2022-12-25T01:27:01.493Z,0.13
2022-12-25T01:27:12.318Z,0.12
2022-12-25T01:27:23.114Z,0.15
2022-12-25T01:27:37.476Z,0.13
2022-12-25T01:27:50.721Z,0.12
2022-12-25T01:28:02.423Z,0.13
2022-12-25T01:28:13.205Z,0.13
2022-12-25T01:28:25.618Z,0.13
2022-12-25T01:28:38.627Z,0.13
2022-12-25T01:28:49.346Z,0.12
2022-12-25T01:29:00.088Z,0.12
2022-12-25T01:29:10.865Z,0.12
2022-12-25T01:29:21.626Z,0.13
2022-12-25T01:29:32.425Z,0.13
2022-12-25T01:29:43.196Z,0.12
2022-12-25T01:29:53.947Z,0.10
2022-12-25T01:30:04.686Z,0.13
2022-12-25T01:30:16.386Z,0.12
2022-12-25T01:30:27.131Z,0.12
2022-12-25T01:30:40.358Z,0.10
2022-12-25T01:30:53.276Z,0.12
2022-12-25T01:31:04.008Z,0.12
2022-12-25T01:31:14.821Z,0.10
2022-12-25T01:31:26.551Z,0.12
2022-12-25T01:31:37.314Z,0.10
2022-12-25T01:31:48.128Z,0.09
2022-12-25T01:31:58.937Z,0.10
2022-12-25T01:32:09.720Z,0.10
2022-12-25T01:32:21.445Z,0.10
2022-12-25T01:32:32.174Z,0.09
2022-12-25T01:32:42.938Z,0.09
2022-12-25T01:32:53.670Z,0.07
2022-12-25T01:33:04.407Z,0.07
2022-12-25T01:33:15.158Z,0.09
2022-12-25T01:33:25.877Z,0.09
2022-12-25T01:33:38.080Z,0.06
2022-12-25T01:33:51.304Z,0.06
2022-12-25T01:34:04.279Z,0.06
2022-12-25T01:34:16.033Z,0.06
2022-12-25T01:34:26.804Z,0.06
2022-12-25T01:34:38.505Z,0.06
2022-12-25T01:34:55.524Z,0.06
2022-12-25T01:35:04.896Z,0.05
2022-12-25T01:35:15.651Z,0.05
2022-12-25T01:35:26.376Z,0.05
2022-12-25T01:35:38.843Z,0.03
2022-12-25T01:35:51.288Z,0.03
2022-12-25T01:36:02.029Z,0.03
2022-12-25T01:36:12.765Z,0.02
2022-12-25T01:36:25.224Z,0.02
2022-12-25T01:36:36.904Z,0.02
2022-12-25T01:36:47.713Z,0.02
2022-12-25T01:36:59.467Z,0.00
2022-12-25T01:37:11.932Z,0.00
2022-12-25T01:37:24.372Z,-0.01
2022-12-25T01:37:36.102Z,-0.01
2022-12-25T01:37:46.835Z,-0.01
2022-12-25T01:38:00.096Z,0.00
2022-12-25T01:38:12.305Z,-0.01
2022-12-25T01:38:23.092Z,-0.04
2022-12-25T01:38:33.850Z,-0.01
2022-12-25T01:38:45.590Z,-0.01
2022-12-25T01:38:58.040Z,0.00
2022-12-25T01:39:08.775Z,-0.01
2022-12-25T01:39:19.518Z,-0.01
2022-12-25T01:39:30.340Z,-0.01
2022-12-25T01:39:41.068Z,-0.04
2022-12-25T01:39:52.811Z,-0.01
2022-12-25T01:40:03.559Z,-0.01
2022-12-25T01:40:15.266Z,0.00
2022-12-25T01:40:25.997Z,-0.01
2022-12-25T01:40:38.416Z,-0.01
2022-12-25T01:40:49.161Z,-0.01
2022-12-25T01:40:59.941Z,-0.01
2022-12-25T01:41:10.696Z,-0.01
2022-12-25T01:41:21.447Z,-0.04
2022-12-25T01:41:32.207Z,0.00
2022-12-25T01:41:43.168Z,0.00
2022-12-25T01:41:53.916Z,-0.01
2022-12-25T01:42:04.654Z,-0.04
2022-12-25T01:42:15.398Z,-0.01
2022-12-25T01:42:26.138Z,-0.01
2022-12-25T01:42:39.342Z,-0.01
2022-12-25T01:42:50.115Z,-0.01
2022-12-25T01:43:00.827Z,-0.01
2022-12-25T01:43:17.034Z,-0.04
2022-12-25T01:43:27.192Z,-0.01
2022-12-25T01:43:37.928Z,-0.04
2022-12-25T01:43:48.659Z,-0.04
2022-12-25T01:44:00.918Z,-0.01
2022-12-25T01:44:15.128Z,-0.05
2022-12-25T01:44:28.349Z,-0.04
2022-12-25T01:44:41.077Z,-0.04
2022-12-25T01:44:51.808Z,-0.04
2022-12-25T01:45:03.508Z,-0.04
2022-12-25T01:45:14.287Z,-0.04
2022-12-25T01:45:25.064Z,-0.05
2022-12-25T01:45:35.878Z,-0.04
2022-12-25T01:45:46.674Z,-0.04
2022-12-25T01:45:59.661Z,-0.05
2022-12-25T01:46:12.177Z,-0.05
2022-12-25T01:46:22.977Z,-0.05
2022-12-25T01:46:34.673Z,-0.05
2022-12-25T01:46:45.457Z,-0.06
2022-12-25T01:46:57.157Z,-0.05
2022-12-25T01:47:08.751Z,-0.06
2022-12-25T01:47:21.534Z,-0.06
2022-12-25T01:47:32.257Z,-0.06
2022-12-25T01:47:44.690Z,-0.06
2022-12-25T01:47:55.427Z,-0.06
2022-12-25T01:48:06.174Z,-0.08
2022-12-25T01:48:18.636Z,-0.06
2022-12-25T01:48:31.368Z,-0.08
2022-12-25T01:48:42.119Z,-0.06
2022-12-25T01:48:54.553Z,-0.05
2022-12-25T01:49:06.775Z,-0.06
2022-12-25T01:49:18.737Z,-0.05
2022-12-25T01:49:29.467Z,-0.05
2022-12-25T01:49:40.251Z,-0.05
2022-12-25T01:49:53.447Z,-0.04
2022-12-25T01:50:05.877Z,-0.04
2022-12-25T01:50:16.627Z,-0.04
2022-12-25T01:50:27.388Z,-0.04
2022-12-25T01:50:38.165Z,-0.01
2022-12-25T01:50:48.906Z,-0.01
2022-12-25T01:51:00.613Z,-0.01
2022-12-25T01:51:11.338Z,-0.01
2022-12-25T01:51:23.067Z,0.00
2022-12-25T01:51:35.547Z,0.00
2022-12-25T01:51:46.267Z,0.00
2022-12-25T01:51:57.008Z,0.02
2022-12-25T01:52:09.938Z,0.02
2022-12-25T01:52:24.196Z,0.03
2022-12-25T01:52:35.337Z,0.02
2022-12-25T01:52:46.078Z,0.03
2022-12-25T01:52:57.800Z,0.03
2022-12-25T01:53:08.561Z,0.03
2022-12-25T01:53:19.299Z,0.05
2022-12-25T01:53:30.037Z,0.05
2022-12-25T01:53:43.246Z,0.05
2022-12-25T01:53:53.972Z,0.06
2022-12-25T01:54:04.738Z,0.05
2022-12-25T01:54:16.940Z,0.06
2022-12-25T01:54:30.190Z,0.07
2022-12-25T01:54:42.438Z,0.07
2022-12-25T01:54:54.661Z,0.07
2022-12-25T01:55:06.446Z,0.07
2022-12-25T01:55:17.195Z,0.07
2022-12-25T01:55:28.923Z,0.07
2022-12-25T01:55:39.792Z,0.09
2022-12-25T01:55:52.418Z,0.09
2022-12-25T01:56:03.158Z,0.09
2022-12-25T01:56:13.889Z,0.10
2022-12-25T01:56:25.638Z,0.10
2022-12-25T01:56:36.397Z,0.10
2022-12-25T01:56:48.828Z,0.12
2022-12-25T01:57:00.541Z,0.13
2022-12-25T01:57:11.332Z,0.12
2022-12-25T01:57:22.969Z,0.13
2022-12-25T01:57:34.721Z,0.15
2022-12-25T01:57:45.476Z,0.15
2022-12-25T01:57:56.247Z,0.16
2022-12-25T01:58:07.969Z,0.18
2022-12-25T01:58:18.718Z,0.16
2022-12-25T01:58:30.914Z,0.20
2022-12-25T01:58:43.348Z,0.21
2022-12-25T01:58:55.602Z,0.21
2022-12-25T01:59:06.339Z,0.23
2022-12-25T01:59:17.104Z,0.23
2022-12-25T01:59:27.845Z,0.24
2022-12-25T01:59:38.628Z,0.24
2022-12-25T01:59:49.374Z,0.25
2022-12-25T02:00:01.345Z,0.24
2022-12-25T02:00:12.126Z,0.28
2022-12-25T02:00:24.559Z,0.27
2022-12-25T02:00:36.371Z,0.28
2022-12-25T02:00:47.162Z,0.30
2022-12-25T02:00:57.990Z,0.30
2022-12-25T02:01:09.776Z,0.31
2022-12-25T02:01:20.637Z,0.31
2022-12-25T02:01:31.548Z,0.33
2022-12-25T02:01:42.529Z,0.34
2022-12-25T02:01:53.573Z,0.36
2022-12-25T02:02:04.496Z,0.38
2022-12-25T02:02:15.438Z,0.39
2022-12-25T02:02:26.340Z,0.39
2022-12-25T02:02:37.280Z,0.39
2022-12-25T02:02:48.180Z,0.41
2022-12-25T02:02:59.191Z,0.41
2022-12-25T02:03:10.008Z,0.43
2022-12-25T02:03:22.505Z,0.43
2022-12-25T02:03:33.360Z,0.46
2022-12-25T02:03:44.141Z,0.46
2022-12-25T02:03:54.862Z,0.46
2022-12-25T02:04:05.641Z,0.48
2022-12-25T02:04:16.372Z,0.48
2022-12-25T02:04:27.110Z,0.49
2022-12-25T02:04:39.115Z,0.49
2022-12-25T02:04:52.520Z,0.52
2022-12-25T02:05:05.289Z,0.52
2022-12-25T02:05:18.977Z,0.53
2022-12-25T02:05:29.737Z,0.57
2022-12-25T02:05:40.462Z,0.58
2022-12-25T02:05:53.430Z,0.58
2022-12-25T02:06:04.180Z,0.61
2022-12-25T02:06:14.921Z,0.60
2022-12-25T02:06:27.350Z,0.62
2022-12-25T02:06:39.760Z,0.61
2022-12-25T02:06:53.020Z,0.62
2022-12-25T02:07:03.782Z,0.65
2022-12-25T02:07:16.250Z,0.64
2022-12-25T02:07:27.032Z,0.65
2022-12-25T02:07:38.710Z,0.68
2022-12-25T02:07:51.162Z,0.67
2022-12-25T02:08:04.420Z,0.68
2022-12-25T02:08:15.187Z,0.70
2022-12-25T02:08:28.123Z,0.71
2022-12-25T02:08:38.858Z,0.72
2022-12-25T02:08:51.069Z,0.72
2022-12-25T02:09:02.819Z,0.75
2022-12-25T02:09:16.059Z,0.76
2022-12-25T02:09:26.790Z,0.75
2022-12-25T02:09:40.019Z,0.79
2022-12-25T02:09:51.710Z,0.78
2022-12-25T02:10:02.449Z,0.79
2022-12-25T02:10:13.181Z,0.80
2022-12-25T02:10:23.955Z,0.80
2022-12-25T02:10:35.698Z,0.82
2022-12-25T02:10:47.408Z,0.82
2022-12-25T02:10:58.151Z,0.82
2022-12-25T02:11:08.890Z,0.83
2022-12-25T02:11:19.631Z,0.85
2022-12-25T02:11:30.390Z,0.88
2022-12-25T02:11:41.121Z,0.88
2022-12-25T02:11:51.878Z,0.89
2022-12-25T02:12:02.678Z,0.89
2022-12-25T02:12:14.355Z,0.90
2022-12-25T02:12:26.772Z,0.89
2022-12-25T02:12:37.524Z,0.90
2022-12-25T02:12:49.735Z,0.92
2022-12-25T02:13:00.501Z,0.94
2022-12-25T02:13:11.220Z,0.96
2022-12-25T02:13:21.969Z,0.97
2022-12-25T02:13:32.692Z,0.97
2022-12-25T02:13:45.180Z,0.98
2022-12-25T02:13:55.914Z,0.98
2022-12-25T02:14:06.673Z,0.98
2022-12-25T02:14:17.433Z,1.00
2022-12-25T02:14:28.192Z,1.03
2022-12-25T02:14:38.968Z,1.03
2022-12-25T02:14:49.723Z,1.04
2022-12-25T02:15:05.851Z,1.06
2022-12-25T02:15:18.602Z,1.06
2022-12-25T02:15:30.579Z,1.07
2022-12-25T02:15:41.361Z,1.07
2022-12-25T02:15:52.111Z,1.08
2022-12-25T02:16:04.570Z,1.08
2022-12-25T02:16:16.430Z,1.10
2022-12-25T02:16:28.731Z,1.12
2022-12-25T02:16:56.511Z,1.12
2022-12-25T02:16:56.897Z,1.15
2022-12-25T02:17:10.443Z,1.16
2022-12-25T02:17:21.251Z,1.16
2022-12-25T02:17:32.102Z,1.16
2022-12-25T02:17:42.821Z,1.19
2022-12-25T02:17:53.606Z,1.21
2022-12-25T02:18:04.350Z,1.19
2022-12-25T02:18:17.331Z,1.19
2022-12-25T02:18:28.121Z,1.21
2022-12-25T02:18:38.851Z,1.21
2022-12-25T02:18:51.831Z,1.24
2022-12-25T02:19:02.567Z,1.22
2022-12-25T02:19:15.302Z,1.24
2022-12-25T02:19:29.135Z,1.26
2022-12-25T02:19:39.911Z,1.26
2022-12-25T02:19:50.692Z,1.26
2022-12-25T02:20:01.444Z,1.28
2022-12-25T02:20:13.142Z,1.29
2022-12-25T02:20:24.869Z,1.29
2022-12-25T02:20:35.602Z,1.29
2022-12-25T02:20:47.307Z,1.32
2022-12-25T02:20:58.063Z,1.33
2022-12-25T02:21:08.807Z,1.34
2022-12-25T02:21:19.564Z,1.34
2022-12-25T02:21:32.768Z,1.34
2022-12-25T02:21:43.494Z,1.34
2022-12-25T02:21:54.277Z,1.37
2022-12-25T02:22:05.012Z,1.36
2022-12-25T02:22:16.720Z,1.37
2022-12-25T02:22:27.453Z,1.39
2022-12-25T02:22:39.152Z,1.39
2022-12-25T02:22:49.983Z,1.39
2022-12-25T02:23:00.730Z,1.40
2022-12-25T02:23:12.445Z,1.42
2022-12-25T02:23:23.185Z,1.43
2022-12-25T02:23:33.931Z,1.43
2022-12-25T02:23:44.701Z,1.42
2022-12-25T02:23:55.426Z,1.44
2022-12-25T02:24:06.199Z,1.46
2022-12-25T02:24:16.933Z,1.44
2022-12-25T02:24:27.670Z,1.46
2022-12-25T02:24:38.405Z,1.46
2022-12-25T02:24:49.143Z,1.50
2022-12-25T02:25:02.111Z,1.46
2022-12-25T02:25:12.842Z,1.47
2022-12-25T02:25:24.623Z,1.50
2022-12-25T02:25:37.866Z,1.50
2022-12-25T02:25:50.332Z,1.51
2022-12-25T02:26:01.074Z,1.51
2022-12-25T02:26:14.284Z,1.51
2022-12-25T02:26:27.493Z,1.52
2022-12-25T02:26:38.285Z,1.54
2022-12-25T02:26:49.260Z,1.54
2022-12-25T02:27:00.031Z,1.54
2022-12-25T02:27:12.474Z,1.55
2022-12-25T02:27:24.927Z,1.54
2022-12-25T02:27:38.635Z,1.57
2022-12-25T02:27:51.098Z,1.57
2022-12-25T02:28:01.874Z,1.55
2022-12-25T02:28:14.315Z,1.57
2022-12-25T02:28:25.056Z,1.58
2022-12-25T02:28:41.034Z,1.58
2022-12-25T02:28:53.888Z,1.60
2022-12-25T02:29:04.620Z,1.60
2022-12-25T02:29:15.374Z,1.60
2022-12-25T02:29:27.606Z,1.61
2022-12-25T02:29:39.843Z,1.62
2022-12-25T02:29:52.092Z,1.61
2022-12-25T02:30:02.856Z,1.62
2022-12-25T02:30:13.604Z,1.62
2022-12-25T02:30:26.034Z,1.62
2022-12-25T02:30:38.567Z,1.64
2022-12-25T02:30:49.305Z,1.65
2022-12-25T02:31:00.097Z,1.64
2022-12-25T02:31:10.833Z,1.65
2022-12-25T02:31:21.634Z,1.65
2022-12-25T02:31:32.418Z,1.68
2022-12-25T02:31:44.914Z,1.65